sensor_id;sensor_type;location;lat;lon;timestamp;P1;durP1;ratioP1;P2;durP2;ratioP2
29812;SDS011;16707;48.106;11.548;2023-08-06T00:01:55;8.07;;;4.90;;
29812;SDS011;16707;48.106;11.548;2023-08-06T00:04:21;5.65;;;4.65;;
29812;SDS011;16707;48.106;11.548;2023-08-06T00:06:48;7.22;;;4.97;;
29812;SDS011;16707;48.106;11.548;2023-08-06T00:09:15;6.38;;;5.25;;
29812;SDS011;16707;48.106;11.548;2023-08-06T00:11:42;6.63;;;5.45;;
29812;SDS011;16707;48.106;11.548;2023-08-06T00:14:11;7.47;;;5.43;;
29812;SDS011;16707;48.106;11.548;2023-08-06T00:16:42;7.38;;;4.97;;
29812;SDS011;16707;48.106;11.548;2023-08-06T00:19:10;7.75;;;4.45;;
29812;SDS011;16707;48.106;11.548;2023-08-06T00:21:37;6.47;;;4.53;;
29812;SDS011;16707;48.106;11.548;2023-08-06T00:24:04;5.30;;;4.10;;
29812;SDS011;16707;48.106;11.548;2023-08-06T00:26:31;5.28;;;4.18;;
29812;SDS011;16707;48.106;11.548;2023-08-06T00:28:58;5.88;;;4.35;;
29812;SDS011;16707;48.106;11.548;2023-08-06T00:31:25;5.10;;;3.83;;
29812;SDS011;16707;48.106;11.548;2023-08-06T00:33:53;5.32;;;3.97;;
29812;SDS011;16707;48.106;11.548;2023-08-06T00:36:20;4.18;;;3.50;;
29812;SDS011;16707;48.106;11.548;2023-08-06T00:38:47;5.10;;;3.70;;
29812;SDS011;16707;48.106;11.548;2023-08-06T00:41:14;3.58;;;2.72;;
29812;SDS011;16707;48.106;11.548;2023-08-06T00:43:41;4.03;;;3.17;;
29812;SDS011;16707;48.106;11.548;2023-08-06T00:46:08;4.32;;;3.85;;
29812;SDS011;16707;48.106;11.548;2023-08-06T00:48:35;4.10;;;3.25;;
29812;SDS011;16707;48.106;11.548;2023-08-06T00:51:04;5.25;;;3.63;;
29812;SDS011;16707;48.106;11.548;2023-08-06T00:53:31;3.63;;;3.22;;
29812;SDS011;16707;48.106;11.548;2023-08-06T00:55:58;4.60;;;3.38;;
29812;SDS011;16707;48.106;11.548;2023-08-06T00:58:25;3.60;;;3.22;;
29812;SDS011;16707;48.106;11.548;2023-08-06T01:00:52;5.43;;;3.58;;
29812;SDS011;16707;48.106;11.548;2023-08-06T01:03:19;4.88;;;4.15;;
29812;SDS011;16707;48.106;11.548;2023-08-06T01:05:46;7.47;;;4.45;;
29812;SDS011;16707;48.106;11.548;2023-08-06T01:08:19;6.32;;;4.47;;
29812;SDS011;16707;48.106;11.548;2023-08-06T01:11:02;7.53;;;4.43;;
29812;SDS011;16707;48.106;11.548;2023-08-06T01:13:45;7.93;;;5.10;;
29812;SDS011;16707;48.106;11.548;2023-08-06T01:16:15;7.13;;;5.03;;
29812;SDS011;16707;48.106;11.548;2023-08-06T01:18:44;8.15;;;5.72;;
29812;SDS011;16707;48.106;11.548;2023-08-06T01:21:16;7.18;;;5.43;;
29812;SDS011;16707;48.106;11.548;2023-08-06T01:23:43;7.18;;;5.35;;
29812;SDS011;16707;48.106;11.548;2023-08-06T01:26:12;8.35;;;5.55;;
29812;SDS011;16707;48.106;11.548;2023-08-06T01:28:49;8.40;;;5.80;;
29812;SDS011;16707;48.106;11.548;2023-08-06T01:31:21;7.63;;;5.57;;
29812;SDS011;16707;48.106;11.548;2023-08-06T01:33:53;8.68;;;5.30;;
29812;SDS011;16707;48.106;11.548;2023-08-06T01:36:23;7.15;;;5.65;;
29812;SDS011;16707;48.106;11.548;2023-08-06T01:38:52;8.13;;;5.32;;
29812;SDS011;16707;48.106;11.548;2023-08-06T01:41:19;7.90;;;6.10;;
29812;SDS011;16707;48.106;11.548;2023-08-06T01:43:46;7.90;;;5.40;;
29812;SDS011;16707;48.106;11.548;2023-08-06T01:46:13;5.93;;;5.05;;
29812;SDS011;16707;48.106;11.548;2023-08-06T01:48:40;7.05;;;5.68;;
29812;SDS011;16707;48.106;11.548;2023-08-06T01:51:08;6.30;;;4.82;;
29812;SDS011;16707;48.106;11.548;2023-08-06T01:53:36;6.80;;;5.40;;
29812;SDS011;16707;48.106;11.548;2023-08-06T01:56:03;6.65;;;4.50;;
29812;SDS011;16707;48.106;11.548;2023-08-06T01:58:30;6.50;;;4.20;;
29812;SDS011;16707;48.106;11.548;2023-08-06T02:00:57;5.68;;;4.63;;
29812;SDS011;16707;48.106;11.548;2023-08-06T02:03:24;5.22;;;4.45;;
29812;SDS011;16707;48.106;11.548;2023-08-06T02:05:51;5.47;;;4.05;;
29812;SDS011;16707;48.106;11.548;2023-08-06T02:08:18;5.85;;;4.05;;
29812;SDS011;16707;48.106;11.548;2023-08-06T02:10:46;4.55;;;4.00;;
29812;SDS011;16707;48.106;11.548;2023-08-06T02:13:13;5.35;;;4.03;;
29812;SDS011;16707;48.106;11.548;2023-08-06T02:15:43;5.20;;;3.70;;
29812;SDS011;16707;48.106;11.548;2023-08-06T02:18:12;5.45;;;3.90;;
29812;SDS011;16707;48.106;11.548;2023-08-06T02:20:39;4.90;;;4.22;;
29812;SDS011;16707;48.106;11.548;2023-08-06T02:23:06;5.18;;;3.80;;
29812;SDS011;16707;48.106;11.548;2023-08-06T02:25:34;4.55;;;3.50;;
29812;SDS011;16707;48.106;11.548;2023-08-06T02:28:02;3.63;;;3.20;;
29812;SDS011;16707;48.106;11.548;2023-08-06T02:30:30;4.97;;;3.47;;
29812;SDS011;16707;48.106;11.548;2023-08-06T02:32:57;4.63;;;3.78;;
29812;SDS011;16707;48.106;11.548;2023-08-06T02:35:23;6.80;;;3.67;;
29812;SDS011;16707;48.106;11.548;2023-08-06T02:37:50;3.42;;;3.13;;
29812;SDS011;16707;48.106;11.548;2023-08-06T02:40:17;4.82;;;3.30;;
29812;SDS011;16707;48.106;11.548;2023-08-06T02:42:44;4.22;;;3.08;;
29812;SDS011;16707;48.106;11.548;2023-08-06T02:45:12;4.80;;;3.67;;
29812;SDS011;16707;48.106;11.548;2023-08-06T02:47:39;5.20;;;3.40;;
29812;SDS011;16707;48.106;11.548;2023-08-06T02:50:07;5.25;;;3.85;;
29812;SDS011;16707;48.106;11.548;2023-08-06T02:52:34;4.25;;;2.88;;
29812;SDS011;16707;48.106;11.548;2023-08-06T02:55:01;3.67;;;3.00;;
29812;SDS011;16707;48.106;11.548;2023-08-06T02:57:28;3.85;;;3.22;;
29812;SDS011;16707;48.106;11.548;2023-08-06T02:59:54;3.50;;;3.03;;
29812;SDS011;16707;48.106;11.548;2023-08-06T03:02:23;4.18;;;3.00;;
29812;SDS011;16707;48.106;11.548;2023-08-06T03:04:50;3.45;;;3.15;;
29812;SDS011;16707;48.106;11.548;2023-08-06T03:07:17;4.03;;;2.75;;
29812;SDS011;16707;48.106;11.548;2023-08-06T03:09:44;4.47;;;3.10;;
29812;SDS011;16707;48.106;11.548;2023-08-06T03:12:11;4.47;;;3.30;;
29812;SDS011;16707;48.106;11.548;2023-08-06T03:14:38;3.38;;;3.08;;
29812;SDS011;16707;48.106;11.548;2023-08-06T03:17:06;4.10;;;3.30;;
29812;SDS011;16707;48.106;11.548;2023-08-06T03:19:34;4.95;;;3.33;;
29812;SDS011;16707;48.106;11.548;2023-08-06T03:22:01;6.30;;;3.33;;
29812;SDS011;16707;48.106;11.548;2023-08-06T03:24:28;4.72;;;3.30;;
29812;SDS011;16707;48.106;11.548;2023-08-06T03:26:55;4.35;;;2.95;;
29812;SDS011;16707;48.106;11.548;2023-08-06T03:29:22;3.75;;;3.28;;
29812;SDS011;16707;48.106;11.548;2023-08-06T03:31:49;4.15;;;3.25;;
29812;SDS011;16707;48.106;11.548;2023-08-06T03:34:16;5.45;;;3.13;;
29812;SDS011;16707;48.106;11.548;2023-08-06T03:36:44;3.97;;;3.47;;
29812;SDS011;16707;48.106;11.548;2023-08-06T03:39:11;4.32;;;3.20;;
29812;SDS011;16707;48.106;11.548;2023-08-06T03:41:39;3.60;;;3.05;;
29812;SDS011;16707;48.106;11.548;2023-08-06T03:44:06;4.80;;;3.15;;
29812;SDS011;16707;48.106;11.548;2023-08-06T03:46:33;3.63;;;3.22;;
29812;SDS011;16707;48.106;11.548;2023-08-06T03:49:00;3.70;;;2.90;;
29812;SDS011;16707;48.106;11.548;2023-08-06T03:51:27;4.20;;;3.20;;
29812;SDS011;16707;48.106;11.548;2023-08-06T03:53:55;4.70;;;3.38;;
29812;SDS011;16707;48.106;11.548;2023-08-06T03:56:22;4.22;;;3.42;;
29812;SDS011;16707;48.106;11.548;2023-08-06T03:58:49;3.65;;;3.20;;
29812;SDS011;16707;48.106;11.548;2023-08-06T04:01:16;4.28;;;3.45;;
29812;SDS011;16707;48.106;11.548;2023-08-06T04:03:43;3.20;;;2.90;;
29812;SDS011;16707;48.106;11.548;2023-08-06T04:06:10;4.00;;;2.95;;
29812;SDS011;16707;48.106;11.548;2023-08-06T04:08:37;3.72;;;2.92;;
29812;SDS011;16707;48.106;11.548;2023-08-06T04:11:05;5.68;;;3.25;;
29812;SDS011;16707;48.106;11.548;2023-08-06T04:13:32;3.15;;;2.80;;
29812;SDS011;16707;48.106;11.548;2023-08-06T04:16:00;5.10;;;2.90;;
29812;SDS011;16707;48.106;11.548;2023-08-06T04:18:28;3.63;;;3.08;;
29812;SDS011;16707;48.106;11.548;2023-08-06T04:20:55;3.92;;;2.88;;
29812;SDS011;16707;48.106;11.548;2023-08-06T04:23:22;3.58;;;2.67;;
29812;SDS011;16707;48.106;11.548;2023-08-06T04:25:49;3.50;;;3.05;;
29812;SDS011;16707;48.106;11.548;2023-08-06T04:28:17;4.43;;;2.53;;
29812;SDS011;16707;48.106;11.548;2023-08-06T04:30:45;3.60;;;2.50;;
29812;SDS011;16707;48.106;11.548;2023-08-06T04:33:12;3.17;;;2.58;;
29812;SDS011;16707;48.106;11.548;2023-08-06T04:35:39;3.67;;;2.55;;
29812;SDS011;16707;48.106;11.548;2023-08-06T04:38:06;2.72;;;2.20;;
29812;SDS011;16707;48.106;11.548;2023-08-06T04:40:33;3.22;;;2.20;;
29812;SDS011;16707;48.106;11.548;2023-08-06T04:43:00;2.65;;;2.28;;
29812;SDS011;16707;48.106;11.548;2023-08-06T04:45:28;4.35;;;2.30;;
29812;SDS011;16707;48.106;11.548;2023-08-06T04:47:55;2.90;;;2.00;;
29812;SDS011;16707;48.106;11.548;2023-08-06T04:50:22;3.65;;;2.15;;
29812;SDS011;16707;48.106;11.548;2023-08-06T04:52:49;2.42;;;1.98;;
29812;SDS011;16707;48.106;11.548;2023-08-06T04:55:16;2.13;;;1.88;;
29812;SDS011;16707;48.106;11.548;2023-08-06T04:57:43;1.95;;;1.67;;
29812;SDS011;16707;48.106;11.548;2023-08-06T05:00:11;2.35;;;2.15;;
29812;SDS011;16707;48.106;11.548;2023-08-06T05:02:39;2.78;;;1.75;;
29812;SDS011;16707;48.106;11.548;2023-08-06T05:05:07;3.63;;;2.05;;
29812;SDS011;16707;48.106;11.548;2023-08-06T05:07:35;3.28;;;2.20;;
29812;SDS011;16707;48.106;11.548;2023-08-06T05:10:02;2.58;;;1.65;;
29812;SDS011;16707;48.106;11.548;2023-08-06T05:12:30;3.15;;;2.00;;
29812;SDS011;16707;48.106;11.548;2023-08-06T05:14:57;3.85;;;2.10;;
29812;SDS011;16707;48.106;11.548;2023-08-06T05:17:23;6.32;;;2.50;;
29812;SDS011;16707;48.106;11.548;2023-08-06T05:19:52;2.35;;;2.03;;
29812;SDS011;16707;48.106;11.548;2023-08-06T05:22:19;2.28;;;1.90;;
29812;SDS011;16707;48.106;11.548;2023-08-06T05:24:45;2.03;;;1.75;;
29812;SDS011;16707;48.106;11.548;2023-08-06T05:27:13;1.75;;;1.63;;
29812;SDS011;16707;48.106;11.548;2023-08-06T05:29:40;3.88;;;2.17;;
29812;SDS011;16707;48.106;11.548;2023-08-06T05:32:07;2.58;;;2.22;;
29812;SDS011;16707;48.106;11.548;2023-08-06T05:34:34;2.88;;;2.33;;
29812;SDS011;16707;48.106;11.548;2023-08-06T05:37:02;2.80;;;1.85;;
29812;SDS011;16707;48.106;11.548;2023-08-06T05:39:30;3.40;;;1.70;;
29812;SDS011;16707;48.106;11.548;2023-08-06T05:41:57;2.40;;;1.60;;
29812;SDS011;16707;48.106;11.548;2023-08-06T05:44:24;2.55;;;1.80;;
29812;SDS011;16707;48.106;11.548;2023-08-06T05:46:51;3.72;;;1.73;;
29812;SDS011;16707;48.106;11.548;2023-08-06T05:49:18;4.25;;;2.00;;
29812;SDS011;16707;48.106;11.548;2023-08-06T05:51:45;2.92;;;2.03;;
29812;SDS011;16707;48.106;11.548;2023-08-06T05:54:14;3.33;;;1.98;;
29812;SDS011;16707;48.106;11.548;2023-08-06T05:56:40;3.08;;;1.65;;
29812;SDS011;16707;48.106;11.548;2023-08-06T05:59:07;2.88;;;1.75;;
29812;SDS011;16707;48.106;11.548;2023-08-06T06:01:34;2.40;;;1.75;;
29812;SDS011;16707;48.106;11.548;2023-08-06T06:04:01;2.38;;;1.77;;
29812;SDS011;16707;48.106;11.548;2023-08-06T06:06:29;3.38;;;1.48;;
29812;SDS011;16707;48.106;11.548;2023-08-06T06:08:56;2.42;;;1.58;;
29812;SDS011;16707;48.106;11.548;2023-08-06T06:11:25;2.30;;;1.50;;
29812;SDS011;16707;48.106;11.548;2023-08-06T06:13:52;1.95;;;1.60;;
29812;SDS011;16707;48.106;11.548;2023-08-06T06:16:19;2.42;;;1.40;;
29812;SDS011;16707;48.106;11.548;2023-08-06T06:18:46;1.98;;;1.65;;
29812;SDS011;16707;48.106;11.548;2023-08-06T06:21:13;1.98;;;1.40;;
29812;SDS011;16707;48.106;11.548;2023-08-06T06:23:40;2.80;;;1.70;;
29812;SDS011;16707;48.106;11.548;2023-08-06T06:26:07;1.10;;;1.00;;
29812;SDS011;16707;48.106;11.548;2023-08-06T06:28:36;4.57;;;1.60;;
29812;SDS011;16707;48.106;11.548;2023-08-06T06:31:03;1.52;;;1.30;;
29812;SDS011;16707;48.106;11.548;2023-08-06T06:33:30;2.13;;;1.55;;
29812;SDS011;16707;48.106;11.548;2023-08-06T06:35:57;1.45;;;1.00;;
29812;SDS011;16707;48.106;11.548;2023-08-06T06:38:24;1.67;;;1.35;;
29812;SDS011;16707;48.106;11.548;2023-08-06T06:40:54;2.50;;;1.73;;
29812;SDS011;16707;48.106;11.548;2023-08-06T06:43:21;2.03;;;1.20;;
29812;SDS011;16707;48.106;11.548;2023-08-06T06:45:53;1.50;;;1.30;;
29812;SDS011;16707;48.106;11.548;2023-08-06T06:48:23;1.92;;;1.30;;
29812;SDS011;16707;48.106;11.548;2023-08-06T06:50:50;2.05;;;1.17;;
29812;SDS011;16707;48.106;11.548;2023-08-06T06:53:17;2.72;;;1.23;;
29812;SDS011;16707;48.106;11.548;2023-08-06T06:55:44;1.95;;;1.27;;
29812;SDS011;16707;48.106;11.548;2023-08-06T06:58:14;1.42;;;1.10;;
29812;SDS011;16707;48.106;11.548;2023-08-06T07:00:41;1.65;;;1.25;;
29812;SDS011;16707;48.106;11.548;2023-08-06T07:03:10;1.65;;;1.33;;
29812;SDS011;16707;48.106;11.548;2023-08-06T07:05:37;2.15;;;0.98;;
29812;SDS011;16707;48.106;11.548;2023-08-06T07:08:03;1.30;;;1.05;;
29812;SDS011;16707;48.106;11.548;2023-08-06T07:10:31;2.20;;;1.17;;
29812;SDS011;16707;48.106;11.548;2023-08-06T07:12:58;1.42;;;1.00;;
29812;SDS011;16707;48.106;11.548;2023-08-06T07:15:25;0.90;;;0.60;;
29812;SDS011;16707;48.106;11.548;2023-08-06T07:17:52;2.50;;;0.73;;
29812;SDS011;16707;48.106;11.548;2023-08-06T07:20:20;1.30;;;0.80;;
29812;SDS011;16707;48.106;11.548;2023-08-06T07:22:47;2.55;;;0.90;;
29812;SDS011;16707;48.106;11.548;2023-08-06T07:25:15;0.77;;;0.60;;
29812;SDS011;16707;48.106;11.548;2023-08-06T07:27:42;0.85;;;0.80;;
29812;SDS011;16707;48.106;11.548;2023-08-06T07:30:09;1.30;;;0.98;;
29812;SDS011;16707;48.106;11.548;2023-08-06T07:32:37;1.92;;;0.70;;
29812;SDS011;16707;48.106;11.548;2023-08-06T07:35:04;1.88;;;0.73;;
29812;SDS011;16707;48.106;11.548;2023-08-06T07:37:34;0.90;;;0.80;;
29812;SDS011;16707;48.106;11.548;2023-08-06T07:40:01;2.10;;;0.90;;
29812;SDS011;16707;48.106;11.548;2023-08-06T07:42:29;3.75;;;1.48;;
29812;SDS011;16707;48.106;11.548;2023-08-06T07:44:57;2.65;;;0.90;;
29812;SDS011;16707;48.106;11.548;2023-08-06T07:47:25;2.15;;;0.73;;
29812;SDS011;16707;48.106;11.548;2023-08-06T07:49:52;1.20;;;0.70;;
29812;SDS011;16707;48.106;11.548;2023-08-06T07:52:19;1.73;;;1.00;;
29812;SDS011;16707;48.106;11.548;2023-08-06T07:54:47;1.75;;;0.80;;
29812;SDS011;16707;48.106;11.548;2023-08-06T07:57:14;2.83;;;1.23;;
29812;SDS011;16707;48.106;11.548;2023-08-06T07:59:41;1.92;;;1.10;;
29812;SDS011;16707;48.106;11.548;2023-08-06T08:02:08;1.95;;;1.27;;
29812;SDS011;16707;48.106;11.548;2023-08-06T08:04:35;2.63;;;0.90;;
29812;SDS011;16707;48.106;11.548;2023-08-06T08:07:02;2.67;;;0.73;;
29812;SDS011;16707;48.106;11.548;2023-08-06T08:09:30;1.00;;;0.85;;
29812;SDS011;16707;48.106;11.548;2023-08-06T08:11:59;1.35;;;0.80;;
29812;SDS011;16707;48.106;11.548;2023-08-06T08:14:27;1.90;;;0.90;;
29812;SDS011;16707;48.106;11.548;2023-08-06T08:17:00;2.03;;;0.80;;
29812;SDS011;16707;48.106;11.548;2023-08-06T08:19:27;1.38;;;0.77;;
29812;SDS011;16707;48.106;11.548;2023-08-06T08:21:54;1.20;;;0.90;;
29812;SDS011;16707;48.106;11.548;2023-08-06T08:24:21;1.55;;;0.80;;
29812;SDS011;16707;48.106;11.548;2023-08-06T08:26:49;1.50;;;0.98;;
29812;SDS011;16707;48.106;11.548;2023-08-06T08:29:18;0.77;;;0.70;;
29812;SDS011;16707;48.106;11.548;2023-08-06T08:31:46;2.30;;;1.00;;
29812;SDS011;16707;48.106;11.548;2023-08-06T08:34:15;2.35;;;0.57;;
29812;SDS011;16707;48.106;11.548;2023-08-06T08:36:42;1.30;;;0.50;;
29812;SDS011;16707;48.106;11.548;2023-08-06T08:39:12;0.70;;;0.50;;
29812;SDS011;16707;48.106;11.548;2023-08-06T08:41:39;0.80;;;0.50;;
29812;SDS011;16707;48.106;11.548;2023-08-06T08:44:07;0.52;;;0.40;;
29812;SDS011;16707;48.106;11.548;2023-08-06T08:46:38;0.40;;;0.40;;
29812;SDS011;16707;48.106;11.548;2023-08-06T08:49:06;0.40;;;0.35;;
29812;SDS011;16707;48.106;11.548;2023-08-06T08:51:34;0.60;;;0.50;;
29812;SDS011;16707;48.106;11.548;2023-08-06T08:54:02;1.55;;;0.40;;
29812;SDS011;16707;48.106;11.548;2023-08-06T08:56:30;0.80;;;0.50;;
29812;SDS011;16707;48.106;11.548;2023-08-06T08:58:58;0.40;;;0.30;;
29812;SDS011;16707;48.106;11.548;2023-08-06T09:01:25;1.10;;;0.40;;
29812;SDS011;16707;48.106;11.548;2023-08-06T09:03:57;0.50;;;0.30;;
29812;SDS011;16707;48.106;11.548;2023-08-06T09:06:25;0.45;;;0.35;;
29812;SDS011;16707;48.106;11.548;2023-08-06T09:08:56;1.05;;;0.45;;
29812;SDS011;16707;48.106;11.548;2023-08-06T09:11:30;0.35;;;0.30;;
29812;SDS011;16707;48.106;11.548;2023-08-06T09:14:04;0.70;;;0.57;;
29812;SDS011;16707;48.106;11.548;2023-08-06T09:16:34;0.50;;;0.47;;
29812;SDS011;16707;48.106;11.548;2023-08-06T09:19:07;0.82;;;0.40;;
29812;SDS011;16707;48.106;11.548;2023-08-06T09:21:36;0.30;;;0.30;;
29812;SDS011;16707;48.106;11.548;2023-08-06T09:24:07;1.80;;;0.30;;
29812;SDS011;16707;48.106;11.548;2023-08-06T09:26:36;1.02;;;0.50;;
29812;SDS011;16707;48.106;11.548;2023-08-06T09:29:04;0.52;;;0.25;;
29812;SDS011;16707;48.106;11.548;2023-08-06T09:31:33;0.45;;;0.40;;
29812;SDS011;16707;48.106;11.548;2023-08-06T09:34:11;0.20;;;0.20;;
29812;SDS011;16707;48.106;11.548;2023-08-06T09:36:41;0.75;;;0.65;;
29812;SDS011;16707;48.106;11.548;2023-08-06T09:39:12;1.05;;;0.30;;
29812;SDS011;16707;48.106;11.548;2023-08-06T09:41:40;0.13;;;0.13;;
29812;SDS011;16707;48.106;11.548;2023-08-06T09:44:13;1.08;;;0.30;;
29812;SDS011;16707;48.106;11.548;2023-08-06T09:46:46;1.38;;;0.20;;
29812;SDS011;16707;48.106;11.548;2023-08-06T09:49:17;0.20;;;0.20;;
29812;SDS011;16707;48.106;11.548;2023-08-06T09:51:45;3.30;;;0.22;;
29812;SDS011;16707;48.106;11.548;2023-08-06T09:54:15;0.35;;;0.30;;
29812;SDS011;16707;48.106;11.548;2023-08-06T09:56:44;0.50;;;0.20;;
29812;SDS011;16707;48.106;11.548;2023-08-06T09:59:11;1.92;;;0.52;;
29812;SDS011;16707;48.106;11.548;2023-08-06T10:01:39;0.40;;;0.22;;
29812;SDS011;16707;48.106;11.548;2023-08-06T10:04:06;0.30;;;0.17;;
29812;SDS011;16707;48.106;11.548;2023-08-06T10:06:35;0.20;;;0.20;;
29812;SDS011;16707;48.106;11.548;2023-08-06T10:09:03;0.30;;;0.20;;
29812;SDS011;16707;48.106;11.548;2023-08-06T10:11:30;0.32;;;0.25;;
29812;SDS011;16707;48.106;11.548;2023-08-06T10:13:58;1.00;;;0.20;;
29812;SDS011;16707;48.106;11.548;2023-08-06T10:16:30;0.40;;;0.20;;
29812;SDS011;16707;48.106;11.548;2023-08-06T10:18:58;0.50;;;0.30;;
29812;SDS011;16707;48.106;11.548;2023-08-06T10:21:27;1.50;;;0.38;;
29812;SDS011;16707;48.106;11.548;2023-08-06T10:23:57;0.63;;;0.20;;
29812;SDS011;16707;48.106;11.548;2023-08-06T10:26:27;0.20;;;0.20;;
29812;SDS011;16707;48.106;11.548;2023-08-06T10:28:55;0.20;;;0.20;;
29812;SDS011;16707;48.106;11.548;2023-08-06T10:34:32;3.03;;;0.35;;
29812;SDS011;16707;48.106;11.548;2023-08-06T10:37:23;0.50;;;0.22;;
29812;SDS011;16707;48.106;11.548;2023-08-06T10:39:52;0.38;;;0.30;;
29812;SDS011;16707;48.106;11.548;2023-08-06T10:42:19;2.60;;;0.40;;
29812;SDS011;16707;48.106;11.548;2023-08-06T10:45:10;1.20;;;0.35;;
29812;SDS011;16707;48.106;11.548;2023-08-06T10:47:39;0.80;;;0.38;;
29812;SDS011;16707;48.106;11.548;2023-08-06T10:50:06;0.55;;;0.20;;
29812;SDS011;16707;48.106;11.548;2023-08-06T10:52:37;0.20;;;0.15;;
29812;SDS011;16707;48.106;11.548;2023-08-06T10:55:06;0.85;;;0.10;;
29812;SDS011;16707;48.106;11.548;2023-08-06T10:57:34;0.50;;;0.13;;
29812;SDS011;16707;48.106;11.548;2023-08-06T11:00:01;0.22;;;0.20;;
29812;SDS011;16707;48.106;11.548;2023-08-06T11:02:32;0.88;;;0.10;;
29812;SDS011;16707;48.106;11.548;2023-08-06T11:05:04;0.82;;;0.30;;
29812;SDS011;16707;48.106;11.548;2023-08-06T11:07:35;1.27;;;0.20;;
29812;SDS011;16707;48.106;11.548;2023-08-06T11:10:03;0.13;;;0.13;;
29812;SDS011;16707;48.106;11.548;2023-08-06T11:12:33;0.30;;;0.20;;
29812;SDS011;16707;48.106;11.548;2023-08-06T11:15:01;0.20;;;0.20;;
29812;SDS011;16707;48.106;11.548;2023-08-06T11:17:31;0.22;;;0.20;;
29812;SDS011;16707;48.106;11.548;2023-08-06T11:19:59;0.47;;;0.10;;
29812;SDS011;16707;48.106;11.548;2023-08-06T11:22:27;0.52;;;0.32;;
29812;SDS011;16707;48.106;11.548;2023-08-06T11:24:54;2.67;;;0.30;;
29812;SDS011;16707;48.106;11.548;2023-08-06T11:27:23;0.00;;;0.00;;
29812;SDS011;16707;48.106;11.548;2023-08-06T11:29:52;0.15;;;0.15;;
29812;SDS011;16707;48.106;11.548;2023-08-06T11:32:19;0.20;;;0.20;;
29812;SDS011;16707;48.106;11.548;2023-08-06T11:34:46;0.85;;;0.10;;
29812;SDS011;16707;48.106;11.548;2023-08-06T11:37:13;0.45;;;0.30;;
29812;SDS011;16707;48.106;11.548;2023-08-06T11:39:47;0.10;;;0.10;;
29812;SDS011;16707;48.106;11.548;2023-08-06T11:44:42;1.15;;;0.20;;
29812;SDS011;16707;48.106;11.548;2023-08-06T11:47:12;0.25;;;0.17;;
29812;SDS011;16707;48.106;11.548;2023-08-06T11:49:41;0.85;;;0.30;;
29812;SDS011;16707;48.106;11.548;2023-08-06T11:52:10;0.25;;;0.20;;
29812;SDS011;16707;48.106;11.548;2023-08-06T11:54:41;0.22;;;0.20;;
29812;SDS011;16707;48.106;11.548;2023-08-06T11:57:08;0.10;;;0.10;;
29812;SDS011;16707;48.106;11.548;2023-08-06T11:59:37;0.20;;;0.20;;
29812;SDS011;16707;48.106;11.548;2023-08-06T12:02:07;0.57;;;0.40;;
29812;SDS011;16707;48.106;11.548;2023-08-06T12:07:31;0.17;;;0.17;;
29812;SDS011;16707;48.106;11.548;2023-08-06T12:09:59;0.17;;;0.15;;
29812;SDS011;16707;48.106;11.548;2023-08-06T12:12:26;0.20;;;0.20;;
29812;SDS011;16707;48.106;11.548;2023-08-06T12:14:54;0.17;;;0.17;;
29812;SDS011;16707;48.106;11.548;2023-08-06T12:17:23;0.20;;;0.20;;
29812;SDS011;16707;48.106;11.548;2023-08-06T12:19:51;0.20;;;0.13;;
29812;SDS011;16707;48.106;11.548;2023-08-06T12:22:17;0.70;;;0.30;;
29812;SDS011;16707;48.106;11.548;2023-08-06T12:24:45;0.15;;;0.15;;
29812;SDS011;16707;48.106;11.548;2023-08-06T12:27:13;1.55;;;0.30;;
29812;SDS011;16707;48.106;11.548;2023-08-06T12:29:41;0.68;;;0.20;;
29812;SDS011;16707;48.106;11.548;2023-08-06T12:32:09;0.57;;;0.30;;
29812;SDS011;16707;48.106;11.548;2023-08-06T12:34:38;0.52;;;0.20;;
29812;SDS011;16707;48.106;11.548;2023-08-06T12:37:05;0.93;;;0.38;;
29812;SDS011;16707;48.106;11.548;2023-08-06T12:39:33;0.20;;;0.20;;
29812;SDS011;16707;48.106;11.548;2023-08-06T12:42:00;0.55;;;0.28;;
29812;SDS011;16707;48.106;11.548;2023-08-06T12:44:29;0.88;;;0.38;;
29812;SDS011;16707;48.106;11.548;2023-08-06T12:46:56;0.10;;;0.10;;
29812;SDS011;16707;48.106;11.548;2023-08-06T12:49:24;0.20;;;0.20;;
29812;SDS011;16707;48.106;11.548;2023-08-06T12:51:53;3.30;;;0.43;;
29812;SDS011;16707;48.106;11.548;2023-08-06T12:54:21;0.20;;;0.20;;
29812;SDS011;16707;48.106;11.548;2023-08-06T12:56:49;0.70;;;0.40;;
29812;SDS011;16707;48.106;11.548;2023-08-06T12:59:16;0.20;;;0.20;;
29812;SDS011;16707;48.106;11.548;2023-08-06T13:01:44;0.20;;;0.20;;
29812;SDS011;16707;48.106;11.548;2023-08-06T13:04:11;0.85;;;0.20;;
29812;SDS011;16707;48.106;11.548;2023-08-06T13:06:38;0.30;;;0.20;;
29812;SDS011;16707;48.106;11.548;2023-08-06T13:09:07;0.28;;;0.20;;
29812;SDS011;16707;48.106;11.548;2023-08-06T13:11:34;0.40;;;0.40;;
29812;SDS011;16707;48.106;11.548;2023-08-06T13:14:06;0.20;;;0.20;;
29812;SDS011;16707;48.106;11.548;2023-08-06T13:16:35;0.35;;;0.30;;
29812;SDS011;16707;48.106;11.548;2023-08-06T13:19:02;0.57;;;0.22;;
29812;SDS011;16707;48.106;11.548;2023-08-06T13:21:31;0.75;;;0.40;;
29812;SDS011;16707;48.106;11.548;2023-08-06T13:24:00;0.52;;;0.52;;
29812;SDS011;16707;48.106;11.548;2023-08-06T13:26:29;0.65;;;0.40;;
29812;SDS011;16707;48.106;11.548;2023-08-06T13:28:56;0.25;;;0.22;;
29812;SDS011;16707;48.106;11.548;2023-08-06T13:31:25;0.20;;;0.20;;
29812;SDS011;16707;48.106;11.548;2023-08-06T13:33:53;0.10;;;0.10;;
29812;SDS011;16707;48.106;11.548;2023-08-06T13:36:22;0.17;;;0.17;;
29812;SDS011;16707;48.106;11.548;2023-08-06T13:38:50;0.50;;;0.50;;
29812;SDS011;16707;48.106;11.548;2023-08-06T13:41:17;0.30;;;0.20;;
29812;SDS011;16707;48.106;11.548;2023-08-06T13:43:45;0.45;;;0.30;;
29812;SDS011;16707;48.106;11.548;2023-08-06T13:46:12;0.98;;;0.40;;
29812;SDS011;16707;48.106;11.548;2023-08-06T13:48:41;0.35;;;0.32;;
29812;SDS011;16707;48.106;11.548;2023-08-06T13:51:09;0.35;;;0.30;;
29812;SDS011;16707;48.106;11.548;2023-08-06T13:53:36;0.20;;;0.20;;
29812;SDS011;16707;48.106;11.548;2023-08-06T13:56:04;0.25;;;0.25;;
29812;SDS011;16707;48.106;11.548;2023-08-06T13:58:31;0.30;;;0.30;;
29812;SDS011;16707;48.106;11.548;2023-08-06T14:01:00;0.50;;;0.30;;
29812;SDS011;16707;48.106;11.548;2023-08-06T14:03:26;1.30;;;0.43;;
29812;SDS011;16707;48.106;11.548;2023-08-06T14:05:54;1.60;;;0.32;;
29812;SDS011;16707;48.106;11.548;2023-08-06T14:08:21;0.22;;;0.20;;
29812;SDS011;16707;48.106;11.548;2023-08-06T14:10:49;0.65;;;0.32;;
29812;SDS011;16707;48.106;11.548;2023-08-06T14:13:16;0.25;;;0.20;;
29812;SDS011;16707;48.106;11.548;2023-08-06T14:15:43;0.75;;;0.52;;
29812;SDS011;16707;48.106;11.548;2023-08-06T14:18:13;0.52;;;0.40;;
29812;SDS011;16707;48.106;11.548;2023-08-06T14:20:40;0.70;;;0.22;;
29812;SDS011;16707;48.106;11.548;2023-08-06T14:23:08;3.33;;;0.57;;
29812;SDS011;16707;48.106;11.548;2023-08-06T14:25:35;1.40;;;0.40;;
29812;SDS011;16707;48.106;11.548;2023-08-06T14:28:02;0.63;;;0.45;;
29812;SDS011;16707;48.106;11.548;2023-08-06T14:30:31;1.30;;;0.43;;
29812;SDS011;16707;48.106;11.548;2023-08-06T14:32:58;1.05;;;0.63;;
29812;SDS011;16707;48.106;11.548;2023-08-06T14:35:27;0.50;;;0.50;;
29812;SDS011;16707;48.106;11.548;2023-08-06T14:37:54;0.40;;;0.40;;
29812;SDS011;16707;48.106;11.548;2023-08-06T14:40:21;1.50;;;0.30;;
29812;SDS011;16707;48.106;11.548;2023-08-06T14:42:50;1.23;;;0.55;;
29812;SDS011;16707;48.106;11.548;2023-08-06T14:45:17;0.80;;;0.57;;
29812;SDS011;16707;48.106;11.548;2023-08-06T14:47:44;0.60;;;0.40;;